sensor_id;sensor_type;location;lat;lon;timestamp;P1;durP1;ratioP1;P2;durP2;ratioP2
15094;SDS011;7648;52.264;9.632;2024-02-21T00:01:44;15.57;;;9.23;;
15094;SDS011;7648;52.264;9.632;2024-02-21T00:05:46;20.90;;;8.73;;
15094;SDS011;7648;52.264;9.632;2024-02-21T00:09:48;14.80;;;9.37;;
15094;SDS011;7648;52.264;9.632;2024-02-21T00:13:50;14.13;;;8.90;;
15094;SDS011;7648;52.264;9.632;2024-02-21T00:17:53;16.03;;;8.80;;
15094;SDS011;7648;52.264;9.632;2024-02-21T00:21:55;17.07;;;10.27;;
15094;SDS011;7648;52.264;9.632;2024-02-21T00:25:57;15.07;;;9.87;;
15094;SDS011;7648;52.264;9.632;2024-02-21T00:29:59;19.90;;;9.77;;
15094;SDS011;7648;52.264;9.632;2024-02-21T00:34:02;12.63;;;9.40;;
15094;SDS011;7648;52.264;9.632;2024-02-21T00:38:04;16.97;;;9.60;;
15094;SDS011;7648;52.264;9.632;2024-02-21T00:42:07;15.43;;;9.67;;
15094;SDS011;7648;52.264;9.632;2024-02-21T00:46:09;14.87;;;10.33;;
15094;SDS011;7648;52.264;9.632;2024-02-21T00:50:12;20.40;;;11.33;;
15094;SDS011;7648;52.264;9.632;2024-02-21T00:54:15;19.10;;;11.73;;
15094;SDS011;7648;52.264;9.632;2024-02-21T00:58:16;20.37;;;11.23;;
15094;SDS011;7648;52.264;9.632;2024-02-21T01:02:18;22.50;;;11.50;;
15094;SDS011;7648;52.264;9.632;2024-02-21T01:06:22;16.07;;;9.90;;
15094;SDS011;7648;52.264;9.632;2024-02-21T01:10:24;14.93;;;10.17;;
15094;SDS011;7648;52.264;9.632;2024-02-21T01:14:26;19.60;;;10.13;;
15094;SDS011;7648;52.264;9.632;2024-02-21T01:18:28;16.90;;;11.53;;
15094;SDS011;7648;52.264;9.632;2024-02-21T01:22:31;15.67;;;10.57;;
15094;SDS011;7648;52.264;9.632;2024-02-21T01:26:33;19.03;;;10.63;;
15094;SDS011;7648;52.264;9.632;2024-02-21T01:30:35;18.27;;;11.40;;
15094;SDS011;7648;52.264;9.632;2024-02-21T01:34:37;14.30;;;10.37;;
15094;SDS011;7648;52.264;9.632;2024-02-21T01:38:40;15.17;;;9.73;;
15094;SDS011;7648;52.264;9.632;2024-02-21T01:42:42;15.70;;;10.80;;
15094;SDS011;7648;52.264;9.632;2024-02-21T01:46:44;17.77;;;11.03;;
15094;SDS011;7648;52.264;9.632;2024-02-21T01:50:46;16.53;;;10.63;;
15094;SDS011;7648;52.264;9.632;2024-02-21T01:54:51;15.43;;;10.60;;
15094;SDS011;7648;52.264;9.632;2024-02-21T01:58:53;16.20;;;11.23;;
15094;SDS011;7648;52.264;9.632;2024-02-21T02:02:56;18.43;;;11.30;;
15094;SDS011;7648;52.264;9.632;2024-02-21T02:06:59;18.70;;;12.23;;
15094;SDS011;7648;52.264;9.632;2024-02-21T02:11:04;17.17;;;11.73;;
15094;SDS011;7648;52.264;9.632;2024-02-21T02:15:07;17.70;;;11.43;;
15094;SDS011;7648;52.264;9.632;2024-02-21T02:19:09;20.17;;;12.07;;
15094;SDS011;7648;52.264;9.632;2024-02-21T02:23:18;20.13;;;11.90;;
15094;SDS011;7648;52.264;9.632;2024-02-21T02:27:24;15.47;;;10.57;;
15094;SDS011;7648;52.264;9.632;2024-02-21T02:31:26;13.33;;;10.53;;
15094;SDS011;7648;52.264;9.632;2024-02-21T02:35:29;14.87;;;10.57;;
15094;SDS011;7648;52.264;9.632;2024-02-21T02:39:32;23.50;;;12.73;;
15094;SDS011;7648;52.264;9.632;2024-02-21T02:43:34;16.80;;;11.63;;
15094;SDS011;7648;52.264;9.632;2024-02-21T02:47:36;18.73;;;11.47;;
15094;SDS011;7648;52.264;9.632;2024-02-21T02:51:41;17.43;;;11.37;;
15094;SDS011;7648;52.264;9.632;2024-02-21T02:55:45;14.93;;;10.70;;
15094;SDS011;7648;52.264;9.632;2024-02-21T02:59:47;15.57;;;11.73;;
15094;SDS011;7648;52.264;9.632;2024-02-21T03:03:49;18.50;;;11.63;;
15094;SDS011;7648;52.264;9.632;2024-02-21T03:07:51;16.10;;;11.17;;
15094;SDS011;7648;52.264;9.632;2024-02-21T03:11:54;13.60;;;10.60;;
15094;SDS011;7648;52.264;9.632;2024-02-21T03:16:02;15.33;;;11.03;;
15094;SDS011;7648;52.264;9.632;2024-02-21T03:20:05;17.37;;;10.47;;
15094;SDS011;7648;52.264;9.632;2024-02-21T03:24:10;13.60;;;10.60;;
15094;SDS011;7648;52.264;9.632;2024-02-21T03:28:13;17.30;;;10.77;;
15094;SDS011;7648;52.264;9.632;2024-02-21T03:32:16;17.63;;;10.50;;
15094;SDS011;7648;52.264;9.632;2024-02-21T03:36:18;14.60;;;10.67;;
15094;SDS011;7648;52.264;9.632;2024-02-21T03:40:20;12.77;;;9.53;;
15094;SDS011;7648;52.264;9.632;2024-02-21T03:44:23;19.17;;;11.07;;
15094;SDS011;7648;52.264;9.632;2024-02-21T03:48:25;15.47;;;10.47;;
15094;SDS011;7648;52.264;9.632;2024-02-21T03:52:27;18.87;;;11.53;;
15094;SDS011;7648;52.264;9.632;2024-02-21T03:56:29;20.70;;;11.70;;
15094;SDS011;7648;52.264;9.632;2024-02-21T04:00:32;20.70;;;12.03;;
15094;SDS011;7648;52.264;9.632;2024-02-21T04:04:34;19.73;;;12.07;;
15094;SDS011;7648;52.264;9.632;2024-02-21T04:08:39;21.03;;;10.77;;
15094;SDS011;7648;52.264;9.632;2024-02-21T04:12:41;21.07;;;11.20;;
15094;SDS011;7648;52.264;9.632;2024-02-21T04:16:44;19.87;;;11.67;;
15094;SDS011;7648;52.264;9.632;2024-02-21T04:20:46;23.63;;;12.07;;
15094;SDS011;7648;52.264;9.632;2024-02-21T04:24:48;26.37;;;12.43;;
15094;SDS011;7648;52.264;9.632;2024-02-21T04:28:50;17.87;;;11.00;;
15094;SDS011;7648;52.264;9.632;2024-02-21T04:32:53;21.87;;;11.40;;
15094;SDS011;7648;52.264;9.632;2024-02-21T04:36:55;17.97;;;11.47;;
15094;SDS011;7648;52.264;9.632;2024-02-21T04:40:57;20.50;;;11.83;;
15094;SDS011;7648;52.264;9.632;2024-02-21T04:44:59;17.10;;;10.80;;
15094;SDS011;7648;52.264;9.632;2024-02-21T04:49:03;18.07;;;12.50;;
15094;SDS011;7648;52.264;9.632;2024-02-21T04:53:04;15.90;;;11.43;;
15094;SDS011;7648;52.264;9.632;2024-02-21T04:57:06;24.03;;;12.60;;
15094;SDS011;7648;52.264;9.632;2024-02-21T05:01:10;17.67;;;12.20;;
15094;SDS011;7648;52.264;9.632;2024-02-21T05:05:13;22.57;;;12.43;;
15094;SDS011;7648;52.264;9.632;2024-02-21T05:09:17;15.50;;;11.67;;
15094;SDS011;7648;52.264;9.632;2024-02-21T05:13:19;21.27;;;11.97;;
15094;SDS011;7648;52.264;9.632;2024-02-21T05:17:21;16.07;;;11.23;;
15094;SDS011;7648;52.264;9.632;2024-02-21T05:21:24;19.07;;;11.73;;
15094;SDS011;7648;52.264;9.632;2024-02-21T05:25:27;16.23;;;11.00;;
15094;SDS011;7648;52.264;9.632;2024-02-21T05:29:29;15.63;;;10.93;;
15094;SDS011;7648;52.264;9.632;2024-02-21T05:33:31;16.77;;;11.97;;
15094;SDS011;7648;52.264;9.632;2024-02-21T05:37:34;15.43;;;9.90;;
15094;SDS011;7648;52.264;9.632;2024-02-21T05:41:36;13.30;;;10.50;;
15094;SDS011;7648;52.264;9.632;2024-02-21T05:45:38;19.07;;;11.57;;
15094;SDS011;7648;52.264;9.632;2024-02-21T05:49:40;20.13;;;10.47;;
15094;SDS011;7648;52.264;9.632;2024-02-21T05:53:43;17.07;;;11.27;;
15094;SDS011;7648;52.264;9.632;2024-02-21T05:57:45;19.57;;;10.67;;
15094;SDS011;7648;52.264;9.632;2024-02-21T06:01:54;18.17;;;11.50;;
15094;SDS011;7648;52.264;9.632;2024-02-21T06:05:57;14.43;;;10.90;;
15094;SDS011;7648;52.264;9.632;2024-02-21T06:10:01;15.10;;;11.57;;
15094;SDS011;7648;52.264;9.632;2024-02-21T06:14:04;14.03;;;10.70;;
15094;SDS011;7648;52.264;9.632;2024-02-21T06:18:06;18.10;;;10.93;;
15094;SDS011;7648;52.264;9.632;2024-02-21T06:22:08;16.00;;;10.97;;
15094;SDS011;7648;52.264;9.632;2024-02-21T06:26:11;15.83;;;11.30;;
15094;SDS011;7648;52.264;9.632;2024-02-21T06:30:13;15.17;;;11.30;;
15094;SDS011;7648;52.264;9.632;2024-02-21T06:34:15;15.07;;;10.00;;
15094;SDS011;7648;52.264;9.632;2024-02-21T06:38:17;17.80;;;11.67;;
15094;SDS011;7648;52.264;9.632;2024-02-21T06:42:20;16.10;;;10.37;;
15094;SDS011;7648;52.264;9.632;2024-02-21T06:46:23;17.77;;;11.63;;
15094;SDS011;7648;52.264;9.632;2024-02-21T06:50:25;16.17;;;11.00;;
15094;SDS011;7648;52.264;9.632;2024-02-21T06:54:27;16.77;;;11.20;;
15094;SDS011;7648;52.264;9.632;2024-02-21T06:58:31;15.43;;;10.50;;
15094;SDS011;7648;52.264;9.632;2024-02-21T07:02:32;18.90;;;10.40;;
15094;SDS011;7648;52.264;9.632;2024-02-21T07:06:34;16.33;;;10.27;;
15094;SDS011;7648;52.264;9.632;2024-02-21T07:10:36;14.07;;;10.27;;
15094;SDS011;7648;52.264;9.632;2024-02-21T07:14:40;11.60;;;9.47;;
15094;SDS011;7648;52.264;9.632;2024-02-21T07:18:42;16.33;;;9.93;;
15094;SDS011;7648;52.264;9.632;2024-02-21T07:22:43;12.57;;;10.03;;
15094;SDS011;7648;52.264;9.632;2024-02-21T07:26:46;13.17;;;8.63;;
15094;SDS011;7648;52.264;9.632;2024-02-21T07:30:49;13.83;;;8.93;;
15094;SDS011;7648;52.264;9.632;2024-02-21T07:34:51;15.80;;;10.20;;
15094;SDS011;7648;52.264;9.632;2024-02-21T07:38:53;15.83;;;8.60;;
15094;SDS011;7648;52.264;9.632;2024-02-21T07:42:55;12.03;;;8.77;;
15094;SDS011;7648;52.264;9.632;2024-02-21T07:46:58;12.00;;;8.70;;
15094;SDS011;7648;52.264;9.632;2024-02-21T07:51:00;13.27;;;9.40;;
15094;SDS011;7648;52.264;9.632;2024-02-21T07:55:03;14.77;;;9.57;;
15094;SDS011;7648;52.264;9.632;2024-02-21T07:59:05;18.03;;;9.77;;
15094;SDS011;7648;52.264;9.632;2024-02-21T08:03:09;15.80;;;9.40;;
15094;SDS011;7648;52.264;9.632;2024-02-21T08:07:11;13.60;;;9.17;;
15094;SDS011;7648;52.264;9.632;2024-02-21T08:11:13;12.33;;;8.93;;
15094;SDS011;7648;52.264;9.632;2024-02-21T08:15:15;9.53;;;8.47;;
15094;SDS011;7648;52.264;9.632;2024-02-21T08:19:19;13.80;;;8.37;;
15094;SDS011;7648;52.264;9.632;2024-02-21T08:23:22;14.67;;;9.20;;
15094;SDS011;7648;52.264;9.632;2024-02-21T08:27:25;16.13;;;8.13;;
15094;SDS011;7648;52.264;9.632;2024-02-21T08:31:26;10.80;;;7.73;;
15094;SDS011;7648;52.264;9.632;2024-02-21T08:35:32;8.33;;;6.63;;
15094;SDS011;7648;52.264;9.632;2024-02-21T08:39:34;8.70;;;6.30;;
15094;SDS011;7648;52.264;9.632;2024-02-21T08:43:36;8.53;;;6.00;;
15094;SDS011;7648;52.264;9.632;2024-02-21T08:47:39;7.60;;;5.83;;
15094;SDS011;7648;52.264;9.632;2024-02-21T08:51:42;8.30;;;5.93;;
15094;SDS011;7648;52.264;9.632;2024-02-21T08:55:44;14.33;;;6.43;;
15094;SDS011;7648;52.264;9.632;2024-02-21T08:59:46;6.53;;;5.53;;
15094;SDS011;7648;52.264;9.632;2024-02-21T09:03:48;8.60;;;5.37;;
15094;SDS011;7648;52.264;9.632;2024-02-21T09:07:55;7.93;;;5.97;;
15094;SDS011;7648;52.264;9.632;2024-02-21T09:11:56;14.47;;;8.10;;
15094;SDS011;7648;52.264;9.632;2024-02-21T09:16:05;7.10;;;5.37;;
15094;SDS011;7648;52.264;9.632;2024-02-21T09:20:09;8.40;;;5.63;;
15094;SDS011;7648;52.264;9.632;2024-02-21T09:24:13;5.37;;;4.83;;
15094;SDS011;7648;52.264;9.632;2024-02-21T09:28:15;11.90;;;5.73;;
15094;SDS011;7648;52.264;9.632;2024-02-21T09:32:17;26.00;;;6.97;;
15094;SDS011;7648;52.264;9.632;2024-02-21T09:36:20;12.47;;;5.80;;
15094;SDS011;7648;52.264;9.632;2024-02-21T09:40:23;7.80;;;4.63;;
15094;SDS011;7648;52.264;9.632;2024-02-21T09:44:37;7.87;;;5.13;;
15094;SDS011;7648;52.264;9.632;2024-02-21T09:48:42;6.10;;;4.43;;
15094;SDS011;7648;52.264;9.632;2024-02-21T09:52:55;4.90;;;4.10;;
15094;SDS011;7648;52.264;9.632;2024-02-21T09:57:01;11.70;;;4.90;;
15094;SDS011;7648;52.264;9.632;2024-02-21T10:01:03;7.47;;;5.37;;
15094;SDS011;7648;52.264;9.632;2024-02-21T10:05:06;5.00;;;4.20;;
15094;SDS011;7648;52.264;9.632;2024-02-21T10:09:09;4.83;;;4.23;;
15094;SDS011;7648;52.264;9.632;2024-02-21T10:13:25;4.83;;;4.30;;
15094;SDS011;7648;52.264;9.632;2024-02-21T10:17:27;6.47;;;3.50;;
15094;SDS011;7648;52.264;9.632;2024-02-21T10:21:29;7.83;;;4.57;;
15094;SDS011;7648;52.264;9.632;2024-02-21T10:25:31;3.90;;;3.50;;
15094;SDS011;7648;52.264;9.632;2024-02-21T10:29:35;4.83;;;3.77;;
15094;SDS011;7648;52.264;9.632;2024-02-21T10:33:37;6.40;;;3.50;;
15094;SDS011;7648;52.264;9.632;2024-02-21T10:37:39;4.33;;;3.10;;
15094;SDS011;7648;52.264;9.632;2024-02-21T10:41:41;3.30;;;3.00;;
15094;SDS011;7648;52.264;9.632;2024-02-21T10:45:46;3.20;;;2.90;;
15094;SDS011;7648;52.264;9.632;2024-02-21T10:49:54;5.23;;;3.10;;
15094;SDS011;7648;52.264;9.632;2024-02-21T10:54:08;7.70;;;3.10;;
15094;SDS011;7648;52.264;9.632;2024-02-21T10:58:18;4.80;;;2.60;;
15094;SDS011;7648;52.264;9.632;2024-02-21T11:02:22;2.87;;;2.47;;
15094;SDS011;7648;52.264;9.632;2024-02-21T11:06:24;4.50;;;2.37;;
15094;SDS011;7648;52.264;9.632;2024-02-21T11:10:28;4.67;;;2.30;;
15094;SDS011;7648;52.264;9.632;2024-02-21T11:14:30;4.60;;;2.33;;
15094;SDS011;7648;52.264;9.632;2024-02-21T11:18:37;3.13;;;2.90;;
15094;SDS011;7648;52.264;9.632;2024-02-21T11:22:41;3.80;;;3.03;;
15094;SDS011;7648;52.264;9.632;2024-02-21T11:26:43;3.80;;;2.37;;
15094;SDS011;7648;52.264;9.632;2024-02-21T11:30:50;3.27;;;2.40;;
15094;SDS011;7648;52.264;9.632;2024-02-21T11:34:56;8.13;;;3.00;;
15094;SDS011;7648;52.264;9.632;2024-02-21T11:39:03;9.30;;;2.63;;
15094;SDS011;7648;52.264;9.632;2024-02-21T11:43:05;7.53;;;2.50;;
15094;SDS011;7648;52.264;9.632;2024-02-21T11:47:07;2.93;;;2.67;;
15094;SDS011;7648;52.264;9.632;2024-02-21T11:51:11;3.50;;;3.03;;
15094;SDS011;7648;52.264;9.632;2024-02-21T11:55:23;4.50;;;3.37;;
15094;SDS011;7648;52.264;9.632;2024-02-21T11:59:25;4.83;;;3.03;;
15094;SDS011;7648;52.264;9.632;2024-02-21T12:03:27;3.70;;;3.27;;
15094;SDS011;7648;52.264;9.632;2024-02-21T12:07:31;5.60;;;3.20;;
15094;SDS011;7648;52.264;9.632;2024-02-21T12:11:33;6.73;;;3.47;;
15094;SDS011;7648;52.264;9.632;2024-02-21T12:15:35;5.97;;;4.00;;
15094;SDS011;7648;52.264;9.632;2024-02-21T12:19:37;4.40;;;3.80;;
15094;SDS011;7648;52.264;9.632;2024-02-21T12:23:40;4.40;;;3.80;;
15094;SDS011;7648;52.264;9.632;2024-02-21T12:27:42;6.93;;;4.37;;
15094;SDS011;7648;52.264;9.632;2024-02-21T12:31:44;5.90;;;4.53;;
15094;SDS011;7648;52.264;9.632;2024-02-21T12:35:46;9.53;;;5.53;;
15094;SDS011;7648;52.264;9.632;2024-02-21T12:39:50;7.57;;;5.03;;
15094;SDS011;7648;52.264;9.632;2024-02-21T12:43:52;10.77;;;5.20;;
15094;SDS011;7648;52.264;9.632;2024-02-21T12:47:54;4.77;;;4.27;;
15094;SDS011;7648;52.264;9.632;2024-02-21T12:51:56;4.70;;;4.30;;
15094;SDS011;7648;52.264;9.632;2024-02-21T12:56:00;4.83;;;4.33;;
15094;SDS011;7648;52.264;9.632;2024-02-21T13:00:02;5.07;;;4.40;;
15094;SDS011;7648;52.264;9.632;2024-02-21T13:04:06;7.43;;;4.90;;
15094;SDS011;7648;52.264;9.632;2024-02-21T13:08:08;5.70;;;5.17;;
15094;SDS011;7648;52.264;9.632;2024-02-21T13:12:13;10.43;;;4.50;;
15094;SDS011;7648;52.264;9.632;2024-02-21T13:16:15;10.10;;;4.40;;
15094;SDS011;7648;52.264;9.632;2024-02-21T13:20:17;3.53;;;3.23;;
15094;SDS011;7648;52.264;9.632;2024-02-21T13:24:19;3.97;;;3.67;;
15094;SDS011;7648;52.264;9.632;2024-02-21T13:28:22;7.33;;;3.50;;
15094;SDS011;7648;52.264;9.632;2024-02-21T13:32:24;4.50;;;2.63;;
15094;SDS011;7648;52.264;9.632;2024-02-21T13:36:26;3.57;;;2.90;;
15094;SDS011;7648;52.264;9.632;2024-02-21T13:40:28;2.73;;;2.30;;
15094;SDS011;7648;52.264;9.632;2024-02-21T13:44:31;8.17;;;2.70;;
15094;SDS011;7648;52.264;9.632;2024-02-21T13:48:34;3.67;;;2.40;;
15094;SDS011;7648;52.264;9.632;2024-02-21T13:52:36;3.77;;;2.47;;
15094;SDS011;7648;52.264;9.632;2024-02-21T13:56:38;4.47;;;2.40;;
15094;SDS011;7648;52.264;9.632;2024-02-21T14:00:41;3.73;;;2.70;;
15094;SDS011;7648;52.264;9.632;2024-02-21T14:04:43;4.97;;;2.30;;
15094;SDS011;7648;52.264;9.632;2024-02-21T14:08:46;5.87;;;2.00;;
15094;SDS011;7648;52.264;9.632;2024-02-21T14:12:47;2.63;;;2.37;;
15094;SDS011;7648;52.264;9.632;2024-02-21T14:16:51;2.57;;;2.00;;
15094;SDS011;7648;52.264;9.632;2024-02-21T14:20:53;4.17;;;1.70;;
15094;SDS011;7648;52.264;9.632;2024-02-21T14:24:55;2.47;;;1.80;;
15094;SDS011;7648;52.264;9.632;2024-02-21T14:28:57;2.10;;;1.80;;
15094;SDS011;7648;52.264;9.632;2024-02-21T14:33:00;8.80;;;3.30;;
15094;SDS011;7648;52.264;9.632;2024-02-21T14:37:02;4.37;;;2.50;;
15094;SDS011;7648;52.264;9.632;2024-02-21T14:41:05;6.20;;;3.70;;
15094;SDS011;7648;52.264;9.632;2024-02-21T14:45:07;4.40;;;2.40;;
15094;SDS011;7648;52.264;9.632;2024-02-21T14:49:11;9.33;;;3.17;;
15094;SDS011;7648;52.264;9.632;2024-02-21T14:53:13;4.13;;;2.73;;
15094;SDS011;7648;52.264;9.632;2024-02-21T14:57:15;5.40;;;2.50;;
15094;SDS011;7648;52.264;9.632;2024-02-21T15:01:17;8.67;;;3.97;;
15094;SDS011;7648;52.264;9.632;2024-02-21T15:05:20;2.70;;;2.43;;
15094;SDS011;7648;52.264;9.632;2024-02-21T15:09:22;6.43;;;3.10;;
15094;SDS011;7648;52.264;9.632;2024-02-21T15:13:24;3.83;;;2.10;;
15094;SDS011;7648;52.264;9.632;2024-02-21T15:17:26;4.83;;;2.50;;
15094;SDS011;7648;52.264;9.632;2024-02-21T15:21:29;8.13;;;2.73;;
15094;SDS011;7648;52.264;9.632;2024-02-21T15:25:31;6.00;;;2.50;;
15094;SDS011;7648;52.264;9.632;2024-02-21T15:29:34;4.27;;;2.67;;
15094;SDS011;7648;52.264;9.632;2024-02-21T15:33:37;2.80;;;2.10;;
15094;SDS011;7648;52.264;9.632;2024-02-21T15:37:43;4.93;;;2.97;;
15094;SDS011;7648;52.264;9.632;2024-02-21T15:41:56;4.27;;;2.13;;
15094;SDS011;7648;52.264;9.632;2024-02-21T15:45:58;4.07;;;2.77;;
15094;SDS011;7648;52.264;9.632;2024-02-21T15:50:00;7.00;;;6.30;;
15094;SDS011;7648;52.264;9.632;2024-02-21T15:54:05;4.77;;;2.47;;
15094;SDS011;7648;52.264;9.632;2024-02-21T15:58:08;3.57;;;3.13;;
15094;SDS011;7648;52.264;9.632;2024-02-21T16:02:10;5.33;;;2.43;;
15094;SDS011;7648;52.264;9.632;2024-02-21T16:06:12;4.50;;;1.90;;
15094;SDS011;7648;52.264;9.632;2024-02-21T16:10:16;3.37;;;1.90;;
15094;SDS011;7648;52.264;9.632;2024-02-21T16:14:18;5.40;;;2.00;;
15094;SDS011;7648;52.264;9.632;2024-02-21T16:18:20;3.93;;;2.00;;
15094;SDS011;7648;52.264;9.632;2024-02-21T16:22:24;3.07;;;2.60;;
15094;SDS011;7648;52.264;9.632;2024-02-21T16:26:27;5.37;;;2.83;;
15094;SDS011;7648;52.264;9.632;2024-02-21T16:30:29;3.33;;;2.37;;
15094;SDS011;7648;52.264;9.632;2024-02-21T16:34:31;3.70;;;3.40;;
15094;SDS011;7648;52.264;9.632;2024-02-21T16:38:35;5.90;;;2.20;;
15094;SDS011;7648;52.264;9.632;2024-02-21T16:42:41;2.40;;;2.20;;
15094;SDS011;7648;52.264;9.632;2024-02-21T16:46:43;4.93;;;2.87;;
15094;SDS011;7648;52.264;9.632;2024-02-21T16:50:45;4.77;;;2.90;;
15094;SDS011;7648;52.264;9.632;2024-02-21T16:54:47;5.27;;;3.03;;
15094;SDS011;7648;52.264;9.632;2024-02-21T16:58:51;9.17;;;3.40;;
15094;SDS011;7648;52.264;9.632;2024-02-21T17:02:53;4.43;;;2.73;;
15094;SDS011;7648;52.264;9.632;2024-02-21T17:06:55;3.40;;;2.50;;
15094;SDS011;7648;52.264;9.632;2024-02-21T17:10:56;4.57;;;2.40;;
15094;SDS011;7648;52.264;9.632;2024-02-21T17:15:02;5.13;;;2.50;;
15094;SDS011;7648;52.264;9.632;2024-02-21T17:19:05;2.50;;;2.30;;
15094;SDS011;7648;52.264;9.632;2024-02-21T17:23:07;3.93;;;2.93;;
15094;SDS011;7648;52.264;9.632;2024-02-21T17:27:09;4.23;;;2.50;;
15094;SDS011;7648;52.264;9.632;2024-02-21T17:31:13;3.57;;;2.67;;
15094;SDS011;7648;52.264;9.632;2024-02-21T17:35:15;5.90;;;2.67;;
15094;SDS011;7648;52.264;9.632;2024-02-21T17:39:17;5.83;;;3.03;;
15094;SDS011;7648;52.264;9.632;2024-02-21T17:43:19;4.50;;;3.00;;
15094;SDS011;7648;52.264;9.632;2024-02-21T17:47:22;3.33;;;2.73;;
15094;SDS011;7648;52.264;9.632;2024-02-21T17:51:24;6.67;;;3.53;;
15094;SDS011;7648;52.264;9.632;2024-02-21T17:55:26;5.30;;;3.07;;
15094;SDS011;7648;52.264;9.632;2024-02-21T17:59:29;3.93;;;3.17;;
15094;SDS011;7648;52.264;9.632;2024-02-21T18:03:33;4.13;;;3.47;;
15094;SDS011;7648;52.264;9.632;2024-02-21T18:07:35;5.27;;;3.47;;
15094;SDS011;7648;52.264;9.632;2024-02-21T18:11:37;4.23;;;3.53;;
15094;SDS011;7648;52.264;9.632;2024-02-21T18:15:39;4.30;;;3.60;;
15094;SDS011;7648;52.264;9.632;2024-02-21T18:19:43;2.67;;;2.47;;
15094;SDS011;7648;52.264;9.632;2024-02-21T18:23:45;7.10;;;3.27;;
15094;SDS011;7648;52.264;9.632;2024-02-21T18:27:46;4.37;;;3.40;;
15094;SDS011;7648;52.264;9.632;2024-02-21T18:31:48;2.97;;;2.70;;
15094;SDS011;7648;52.264;9.632;2024-02-21T18:35:52;5.80;;;3.57;;
15094;SDS011;7648;52.264;9.632;2024-02-21T18:39:54;3.67;;;3.17;;
15094;SDS011;7648;52.264;9.632;2024-02-21T18:43:55;4.00;;;3.30;;
15094;SDS011;7648;52.264;9.632;2024-02-21T18:47:59;3.53;;;2.50;;
15094;SDS011;7648;52.264;9.632;2024-02-21T18:52:02;7.23;;;5.33;;
15094;SDS011;7648;52.264;9.632;2024-02-21T18:56:05;6.80;;;6.13;;
15094;SDS011;7648;52.264;9.632;2024-02-21T19:00:08;7.13;;;6.53;;
15094;SDS011;7648;52.264;9.632;2024-02-21T19:04:15;5.37;;;3.30;;
15094;SDS011;7648;52.264;9.632;2024-02-21T19:08:18;5.30;;;3.60;;
15094;SDS011;7648;52.264;9.632;2024-02-21T19:12:20;3.33;;;2.90;;
15094;SDS011;7648;52.264;9.632;2024-02-21T19:16:24;3.43;;;2.90;;
15094;SDS011;7648;52.264;9.632;2024-02-21T19:20:26;4.47;;;2.90;;
15094;SDS011;7648;52.264;9.632;2024-02-21T19:24:30;6.30;;;2.70;;
15094;SDS011;7648;52.264;9.632;2024-02-21T19:28:31;7.70;;;2.47;;
15094;SDS011;7648;52.264;9.632;2024-02-21T19:32:35;5.37;;;2.63;;
15094;SDS011;7648;52.264;9.632;2024-02-21T19:36:37;3.07;;;2.83;;
15094;SDS011;7648;52.264;9.632;2024-02-21T19:40:40;3.10;;;2.73;;
15094;SDS011;7648;52.264;9.632;2024-02-21T19:44:42;4.90;;;2.70;;
15094;SDS011;7648;52.264;9.632;2024-02-21T19:48:45;6.77;;;2.50;;
15094;SDS011;7648;52.264;9.632;2024-02-21T19:52:48;4.17;;;2.20;;
15094;SDS011;7648;52.264;9.632;2024-02-21T19:56:52;3.67;;;2.50;;
15094;SDS011;7648;52.264;9.632;2024-02-21T20:00:54;2.87;;;1.93;;
15094;SDS011;7648;52.264;9.632;2024-02-21T20:04:55;6.10;;;2.30;;
15094;SDS011;7648;52.264;9.632;2024-02-21T20:08:57;3.53;;;2.47;;
15094;SDS011;7648;52.264;9.632;2024-02-21T20:13:06;3.87;;;2.37;;
15094;SDS011;7648;52.264;9.632;2024-02-21T20:17:08;2.43;;;2.23;;
15094;SDS011;7648;52.264;9.632;2024-02-21T20:21:10;3.40;;;2.30;;
15094;SDS011;7648;52.264;9.632;2024-02-21T20:25:13;3.33;;;2.47;;
15094;SDS011;7648;52.264;9.632;2024-02-21T20:29:17;3.60;;;2.40;;
15094;SDS011;7648;52.264;9.632;2024-02-21T20:33:19;6.53;;;2.53;;
15094;SDS011;7648;52.264;9.632;2024-02-21T20:37:21;3.40;;;2.47;;
15094;SDS011;7648;52.264;9.632;2024-02-21T20:41:23;2.67;;;2.47;;
15094;SDS011;7648;52.264;9.632;2024-02-21T20:45:26;7.57;;;2.90;;
15094;SDS011;7648;52.264;9.632;2024-02-21T20:49:28;3.43;;;2.50;;
15094;SDS011;7648;52.264;9.632;2024-02-21T20:53:30;3.17;;;2.20;;
15094;SDS011;7648;52.264;9.632;2024-02-21T20:57:32;3.77;;;2.13;;
15094;SDS011;7648;52.264;9.632;2024-02-21T21:01:37;2.77;;;2.10;;
15094;SDS011;7648;52.264;9.632;2024-02-21T21:05:39;2.17;;;1.97;;
15094;SDS011;7648;52.264;9.632;2024-02-21T21:09:41;5.37;;;2.20;;
15094;SDS011;7648;52.264;9.632;2024-02-21T21:13:44;3.50;;;2.53;;
15094;SDS011;7648;52.264;9.632;2024-02-21T21:17:47;3.67;;;2.07;;
15094;SDS011;7648;52.264;9.632;2024-02-21T21:21:49;3.30;;;2.30;;
15094;SDS011;7648;52.264;9.632;2024-02-21T21:25:51;2.93;;;2.27;;
15094;SDS011;7648;52.264;9.632;2024-02-21T21:29:53;3.00;;;1.97;;
15094;SDS011;7648;52.264;9.632;2024-02-21T21:33:57;4.97;;;2.10;;
15094;SDS011;7648;52.264;9.632;2024-02-21T21:37:58;2.70;;;2.17;;
15094;SDS011;7648;52.264;9.632;2024-02-21T21:42:01;3.70;;;2.30;;
15094;SDS011;7648;52.264;9.632;2024-02-21T21:46:03;2.93;;;2.00;;
15094;SDS011;7648;52.264;9.632;2024-02-21T21:50:07;2.60;;;2.30;;
15094;SDS011;7648;52.264;9.632;2024-02-21T21:54:09;4.87;;;2.17;;
15094;SDS011;7648;52.264;9.632;2024-02-21T21:58:11;2.03;;;1.93;;
15094;SDS011;7648;52.264;9.632;2024-02-21T22:02:13;3.60;;;2.50;;
15094;SDS011;7648;52.264;9.632;2024-02-21T22:06:16;1.87;;;1.77;;
15094;SDS011;7648;52.264;9.632;2024-02-21T22:10:18;2.27;;;1.90;;
15094;SDS011;7648;52.264;9.632;2024-02-21T22:14:20;2.83;;;2.10;;
15094;SDS011;7648;52.264;9.632;2024-02-21T22:18:22;4.17;;;2.70;;
15094;SDS011;7648;52.264;9.632;2024-02-21T22:22:26;4.23;;;3.93;;
15094;SDS011;7648;52.264;9.632;2024-02-21T22:26:28;3.93;;;2.90;;
15094;SDS011;7648;52.264;9.632;2024-02-21T22:30:30;5.20;;;3.80;;
15094;SDS011;7648;52.264;9.632;2024-02-21T22:34:32;3.30;;;2.40;;
15094;SDS011;7648;52.264;9.632;2024-02-21T22:38:36;5.40;;;2.27;;
15094;SDS011;7648;52.264;9.632;2024-02-21T22:42:38;3.67;;;2.30;;
15094;SDS011;7648;52.264;9.632;2024-02-21T22:46:41;3.43;;;2.17;;
15094;SDS011;7648;52.264;9.632;2024-02-21T22:50:43;3.30;;;2.60;;
15094;SDS011;7648;52.264;9.632;2024-02-21T22:54:47;4.53;;;3.00;;
15094;SDS011;7648;52.264;9.632;2024-02-21T22:58:49;3.50;;;2.00;;
15094;SDS011;7648;52.264;9.632;2024-02-21T23:02:51;4.07;;;2.47;;
15094;SDS011;7648;52.264;9.632;2024-02-21T23:06:53;2.67;;;2.10;;
15094;SDS011;7648;52.264;9.632;2024-02-21T23:10:56;3.90;;;2.30;;
15094;SDS011;7648;52.264;9.632;2024-02-21T23:15:00;2.70;;;2.20;;
15094;SDS011;7648;52.264;9.632;2024-02-21T23:19:03;4.13;;;2.10;;
15094;SDS011;7648;52.264;9.632;2024-02-21T23:23:04;3.17;;;2.27;;
15094;SDS011;7648;52.264;9.632;2024-02-21T23:27:08;3.73;;;2.60;;
15094;SDS011;7648;52.264;9.632;2024-02-21T23:31:12;3.23;;;2.53;;
15094;SDS011;7648;52.264;9.632;2024-02-21T23:35:14;3.00;;;2.10;;
15094;SDS011;7648;52.264;9.632;2024-02-21T23:39:16;2.87;;;2.23;;
15094;SDS011;7648;52.264;9.632;2024-02-21T23:43:19;2.83;;;2.20;;
15094;SDS011;7648;52.264;9.632;2024-02-21T23:47:21;2.77;;;2.57;;
15094;SDS011;7648;52.264;9.632;2024-02-21T23:51:23;2.50;;;2.10;;
15094;SDS011;7648;52.264;9.632;2024-02-21T23:55:26;3.43;;;2.33;;
15094;SDS011;7648;52.264;9.632;2024-02-21T23:59:29;4.73;;;3.07;;
